sensor_id;sensor_type;location;lat;lon;timestamp;temperature;humidity
34726;DHT22;20951;50.818;4.344;2023-05-07T00:00:52;17.80;99.90
34726;DHT22;20951;50.818;4.344;2023-05-07T00:03:28;17.80;99.90
34726;DHT22;20951;50.818;4.344;2023-05-07T00:06:12;18.00;99.90
34726;DHT22;20951;50.818;4.344;2023-05-07T00:08:40;18.00;99.90
34726;DHT22;20951;50.818;4.344;2023-05-07T00:11:26;17.90;99.90
34726;DHT22;20951;50.818;4.344;2023-05-07T00:14:02;18.00;99.90
34726;DHT22;20951;50.818;4.344;2023-05-07T00:16:39;17.90;99.90
34726;DHT22;20951;50.818;4.344;2023-05-07T00:19:15;17.80;99.90
34726;DHT22;20951;50.818;4.344;2023-05-07T00:21:41;17.90;99.90
34726;DHT22;20951;50.818;4.344;2023-05-07T00:24:24;17.80;99.90
34726;DHT22;20951;50.818;4.344;2023-05-07T00:26:50;17.70;99.90
34726;DHT22;20951;50.818;4.344;2023-05-07T00:29:26;17.70;99.90
34726;DHT22;20951;50.818;4.344;2023-05-07T00:32:02;17.70;99.90
34726;DHT22;20951;50.818;4.344;2023-05-07T00:34:46;17.70;99.90
34726;DHT22;20951;50.818;4.344;2023-05-07T00:37:24;17.80;99.90
34726;DHT22;20951;50.818;4.344;2023-05-07T00:39:57;17.80;99.90
34726;DHT22;20951;50.818;4.344;2023-05-07T00:42:34;17.80;99.90
34726;DHT22;20951;50.818;4.344;2023-05-07T00:45:15;17.80;99.90
34726;DHT22;20951;50.818;4.344;2023-05-07T00:48:17;17.70;99.90
34726;DHT22;20951;50.818;4.344;2023-05-07T00:50:56;17.60;99.90
34726;DHT22;20951;50.818;4.344;2023-05-07T00:53:35;17.70;99.90
34726;DHT22;20951;50.818;4.344;2023-05-07T00:56:01;17.70;99.90
34726;DHT22;20951;50.818;4.344;2023-05-07T00:58:54;17.80;99.90
34726;DHT22;20951;50.818;4.344;2023-05-07T01:01:28;17.90;99.90
34726;DHT22;20951;50.818;4.344;2023-05-07T01:04:04;17.70;99.90
34726;DHT22;20951;50.818;4.344;2023-05-07T01:06:41;17.80;99.90
34726;DHT22;20951;50.818;4.344;2023-05-07T01:09:07;17.60;99.90
34726;DHT22;20951;50.818;4.344;2023-05-07T01:11:44;17.60;99.90
34726;DHT22;20951;50.818;4.344;2023-05-07T01:14:25;17.70;99.90
34726;DHT22;20951;50.818;4.344;2023-05-07T01:17:05;17.60;99.90
34726;DHT22;20951;50.818;4.344;2023-05-07T01:19:42;17.70;99.90
34726;DHT22;20951;50.818;4.344;2023-05-07T01:22:32;17.70;99.90
34726;DHT22;20951;50.818;4.344;2023-05-07T01:25:04;17.60;99.90
34726;DHT22;20951;50.818;4.344;2023-05-07T01:27:35;17.60;99.90
34726;DHT22;20951;50.818;4.344;2023-05-07T01:30:05;17.50;99.90
34726;DHT22;20951;50.818;4.344;2023-05-07T01:32:35;17.30;99.90
34726;DHT22;20951;50.818;4.344;2023-05-07T01:35:17;17.40;99.90
34726;DHT22;20951;50.818;4.344;2023-05-07T01:37:59;17.40;99.90
34726;DHT22;20951;50.818;4.344;2023-05-07T01:40:38;17.40;99.90
34726;DHT22;20951;50.818;4.344;2023-05-07T01:43:17;17.20;99.90
34726;DHT22;20951;50.818;4.344;2023-05-07T01:45:53;17.20;99.90
34726;DHT22;20951;50.818;4.344;2023-05-07T01:48:22;17.30;99.90
34726;DHT22;20951;50.818;4.344;2023-05-07T01:51:07;17.30;99.90
34726;DHT22;20951;50.818;4.344;2023-05-07T01:53:54;17.40;99.90
34726;DHT22;20951;50.818;4.344;2023-05-07T01:56:32;17.50;99.90
34726;DHT22;20951;50.818;4.344;2023-05-07T01:59:06;17.50;99.90
34726;DHT22;20951;50.818;4.344;2023-05-07T02:01:42;17.30;99.90
34726;DHT22;20951;50.818;4.344;2023-05-07T02:04:23;17.30;99.90
34726;DHT22;20951;50.818;4.344;2023-05-07T02:07:01;17.40;99.90
34726;DHT22;20951;50.818;4.344;2023-05-07T02:09:33;17.50;99.90
34726;DHT22;20951;50.818;4.344;2023-05-07T02:12:07;17.50;99.90
34726;DHT22;20951;50.818;4.344;2023-05-07T02:14:46;17.40;99.90
34726;DHT22;20951;50.818;4.344;2023-05-07T02:17:22;17.40;99.90
34726;DHT22;20951;50.818;4.344;2023-05-07T02:20:01;17.50;99.90
34726;DHT22;20951;50.818;4.344;2023-05-07T02:22:38;17.60;99.90
34726;DHT22;20951;50.818;4.344;2023-05-07T02:25:07;17.40;99.90
34726;DHT22;20951;50.818;4.344;2023-05-07T02:27:46;17.40;99.90
34726;DHT22;20951;50.818;4.344;2023-05-07T02:30:17;17.40;99.90
34726;DHT22;20951;50.818;4.344;2023-05-07T02:32:50;17.40;99.90
34726;DHT22;20951;50.818;4.344;2023-05-07T02:35:16;17.40;99.90
34726;DHT22;20951;50.818;4.344;2023-05-07T02:37:52;17.30;99.90
34726;DHT22;20951;50.818;4.344;2023-05-07T02:40:28;17.30;99.90
34726;DHT22;20951;50.818;4.344;2023-05-07T02:43:05;17.40;99.90
34726;DHT22;20951;50.818;4.344;2023-05-07T02:45:32;17.30;99.90
34726;DHT22;20951;50.818;4.344;2023-05-07T02:48:01;17.30;99.90
34726;DHT22;20951;50.818;4.344;2023-05-07T02:50:37;17.30;99.90
34726;DHT22;20951;50.818;4.344;2023-05-07T02:53:21;17.30;99.90
34726;DHT22;20951;50.818;4.344;2023-05-07T02:56:00;17.30;99.90
34726;DHT22;20951;50.818;4.344;2023-05-07T02:58:36;17.30;99.90
34726;DHT22;20951;50.818;4.344;2023-05-07T03:01:13;17.30;99.90
34726;DHT22;20951;50.818;4.344;2023-05-07T03:03:52;17.20;99.90
34726;DHT22;20951;50.818;4.344;2023-05-07T03:06:28;17.30;99.90
34726;DHT22;20951;50.818;4.344;2023-05-07T03:08:54;17.30;99.90
34726;DHT22;20951;50.818;4.344;2023-05-07T03:11:30;17.50;99.90
34726;DHT22;20951;50.818;4.344;2023-05-07T03:14:09;17.50;99.90
34726;DHT22;20951;50.818;4.344;2023-05-07T03:16:35;17.60;99.90
34726;DHT22;20951;50.818;4.344;2023-05-07T03:19:03;17.60;99.90
34726;DHT22;20951;50.818;4.344;2023-05-07T03:21:30;17.50;99.90
34726;DHT22;20951;50.818;4.344;2023-05-07T03:24:06;17.50;99.90
34726;DHT22;20951;50.818;4.344;2023-05-07T03:26:42;17.60;99.90
34726;DHT22;20951;50.818;4.344;2023-05-07T03:29:11;17.70;99.90
34726;DHT22;20951;50.818;4.344;2023-05-07T03:31:44;17.70;99.90
34726;DHT22;20951;50.818;4.344;2023-05-07T03:34:16;17.70;99.90
34726;DHT22;20951;50.818;4.344;2023-05-07T03:36:55;17.70;99.90
34726;DHT22;20951;50.818;4.344;2023-05-07T03:39:21;17.70;99.90
34726;DHT22;20951;50.818;4.344;2023-05-07T03:41:50;17.80;99.90
34726;DHT22;20951;50.818;4.344;2023-05-07T03:44:26;17.70;99.90
34726;DHT22;20951;50.818;4.344;2023-05-07T03:47:05;17.80;99.90
34726;DHT22;20951;50.818;4.344;2023-05-07T03:49:41;17.80;99.90
34726;DHT22;20951;50.818;4.344;2023-05-07T03:52:14;17.80;99.90
34726;DHT22;20951;50.818;4.344;2023-05-07T03:54:40;17.80;99.90
34726;DHT22;20951;50.818;4.344;2023-05-07T03:57:24;17.70;99.90
34726;DHT22;20951;50.818;4.344;2023-05-07T03:59:50;17.80;99.90
34726;DHT22;20951;50.818;4.344;2023-05-07T04:02:23;17.60;99.90
34726;DHT22;20951;50.818;4.344;2023-05-07T04:04:59;17.60;99.90
34726;DHT22;20951;50.818;4.344;2023-05-07T04:07:25;17.60;99.90
34726;DHT22;20951;50.818;4.344;2023-05-07T04:09:54;17.60;99.90
34726;DHT22;20951;50.818;4.344;2023-05-07T04:12:34;17.70;99.90
34726;DHT22;20951;50.818;4.344;2023-05-07T04:15:00;17.70;99.90
34726;DHT22;20951;50.818;4.344;2023-05-07T04:17:26;17.80;99.90
34726;DHT22;20951;50.818;4.344;2023-05-07T04:20:15;17.70;99.90
34726;DHT22;20951;50.818;4.344;2023-05-07T04:22:43;17.90;99.90
34726;DHT22;20951;50.818;4.344;2023-05-07T04:25:22;17.90;99.90
34726;DHT22;20951;50.818;4.344;2023-05-07T04:27:52;17.80;99.90
34726;DHT22;20951;50.818;4.344;2023-05-07T04:30:28;17.80;99.90
34726;DHT22;20951;50.818;4.344;2023-05-07T04:33:07;17.90;99.90
34726;DHT22;20951;50.818;4.344;2023-05-07T04:35:36;17.90;99.90
34726;DHT22;20951;50.818;4.344;2023-05-07T04:38:07;18.00;99.90
34726;DHT22;20951;50.818;4.344;2023-05-07T04:40:49;18.00;99.90
34726;DHT22;20951;50.818;4.344;2023-05-07T04:43:26;18.10;99.90
34726;DHT22;20951;50.818;4.344;2023-05-07T04:45:59;18.10;99.90
34726;DHT22;20951;50.818;4.344;2023-05-07T04:48:35;18.10;99.90
34726;DHT22;20951;50.818;4.344;2023-05-07T04:51:03;18.10;99.90
34726;DHT22;20951;50.818;4.344;2023-05-07T04:53:32;18.20;99.90
34726;DHT22;20951;50.818;4.344;2023-05-07T04:56:11;18.20;99.90
34726;DHT22;20951;50.818;4.344;2023-05-07T04:58:49;18.20;99.90
34726;DHT22;20951;50.818;4.344;2023-05-07T05:01:25;18.20;99.90
34726;DHT22;20951;50.818;4.344;2023-05-07T05:03:54;18.20;99.90
34726;DHT22;20951;50.818;4.344;2023-05-07T05:06:25;18.20;99.90
34726;DHT22;20951;50.818;4.344;2023-05-07T05:08:53;18.30;99.90
34726;DHT22;20951;50.818;4.344;2023-05-07T05:11:22;18.40;99.90
34726;DHT22;20951;50.818;4.344;2023-05-07T05:13:59;18.50;99.90
34726;DHT22;20951;50.818;4.344;2023-05-07T05:16:27;18.60;99.90
34726;DHT22;20951;50.818;4.344;2023-05-07T05:18:55;18.60;99.90
34726;DHT22;20951;50.818;4.344;2023-05-07T05:21:23;18.80;99.90
34726;DHT22;20951;50.818;4.344;2023-05-07T05:23:50;18.90;99.90
34726;DHT22;20951;50.818;4.344;2023-05-07T05:26:29;18.80;99.90
34726;DHT22;20951;50.818;4.344;2023-05-07T05:29:05;19.00;99.90
34726;DHT22;20951;50.818;4.344;2023-05-07T05:31:34;18.80;99.90
34726;DHT22;20951;50.818;4.344;2023-05-07T05:34:09;18.90;99.90
34726;DHT22;20951;50.818;4.344;2023-05-07T05:36:48;18.90;99.90
34726;DHT22;20951;50.818;4.344;2023-05-07T05:39:13;18.80;99.90
34726;DHT22;20951;50.818;4.344;2023-05-07T05:41:50;18.50;99.90
34726;DHT22;20951;50.818;4.344;2023-05-07T05:44:19;18.60;99.90
34726;DHT22;20951;50.818;4.344;2023-05-07T05:46:55;18.70;99.90
34726;DHT22;20951;50.818;4.344;2023-05-07T05:49:33;18.70;99.90
34726;DHT22;20951;50.818;4.344;2023-05-07T05:52:16;18.50;99.90
34726;DHT22;20951;50.818;4.344;2023-05-07T05:54:49;18.20;99.90
34726;DHT22;20951;50.818;4.344;2023-05-07T05:57:15;18.00;99.90
34726;DHT22;20951;50.818;4.344;2023-05-07T05:59:44;17.80;99.90
34726;DHT22;20951;50.818;4.344;2023-05-07T06:02:20;17.20;99.90
34726;DHT22;20951;50.818;4.344;2023-05-07T06:04:48;17.00;99.90
34726;DHT22;20951;50.818;4.344;2023-05-07T06:07:15;16.90;99.90
34726;DHT22;20951;50.818;4.344;2023-05-07T06:09:49;17.20;99.90
34726;DHT22;20951;50.818;4.344;2023-05-07T06:12:34;17.10;99.90
34726;DHT22;20951;50.818;4.344;2023-05-07T06:15:10;17.00;99.90
34726;DHT22;20951;50.818;4.344;2023-05-07T06:17:49;17.00;99.90
34726;DHT22;20951;50.818;4.344;2023-05-07T06:20:30;17.00;99.90
34726;DHT22;20951;50.818;4.344;2023-05-07T06:23:05;16.70;99.90
34726;DHT22;20951;50.818;4.344;2023-05-07T06:25:41;16.70;99.90
34726;DHT22;20951;50.818;4.344;2023-05-07T06:28:17;16.90;99.90
34726;DHT22;20951;50.818;4.344;2023-05-07T06:30:53;16.90;99.90
34726;DHT22;20951;50.818;4.344;2023-05-07T06:33:29;16.80;99.90
34726;DHT22;20951;50.818;4.344;2023-05-07T06:36:06;16.90;99.90
34726;DHT22;20951;50.818;4.344;2023-05-07T06:38:42;17.00;99.90
34726;DHT22;20951;50.818;4.344;2023-05-07T06:41:21;17.00;99.90
34726;DHT22;20951;50.818;4.344;2023-05-07T06:44:09;17.00;99.90
34726;DHT22;20951;50.818;4.344;2023-05-07T06:47:11;17.10;99.90
34726;DHT22;20951;50.818;4.344;2023-05-07T06:49:50;17.20;99.90
34726;DHT22;20951;50.818;4.344;2023-05-07T06:52:28;17.10;99.90
34726;DHT22;20951;50.818;4.344;2023-05-07T06:54:59;17.10;99.90
34726;DHT22;20951;50.818;4.344;2023-05-07T06:57:29;17.00;99.90
34726;DHT22;20951;50.818;4.344;2023-05-07T07:00:03;16.90;99.90
34726;DHT22;20951;50.818;4.344;2023-05-07T07:02:40;16.80;99.90
34726;DHT22;20951;50.818;4.344;2023-05-07T07:05:17;16.90;99.90
34726;DHT22;20951;50.818;4.344;2023-05-07T07:07:43;17.00;99.90
34726;DHT22;20951;50.818;4.344;2023-05-07T07:10:19;17.00;99.90
34726;DHT22;20951;50.818;4.344;2023-05-07T07:12:50;16.90;99.90
34726;DHT22;20951;50.818;4.344;2023-05-07T07:15:20;17.10;99.90
34726;DHT22;20951;50.818;4.344;2023-05-07T07:17:54;17.10;99.90
34726;DHT22;20951;50.818;4.344;2023-05-07T07:20:31;17.20;99.90
34726;DHT22;20951;50.818;4.344;2023-05-07T07:23:06;17.30;99.90
34726;DHT22;20951;50.818;4.344;2023-05-07T07:25:42;17.30;99.90
34726;DHT22;20951;50.818;4.344;2023-05-07T07:28:21;17.20;99.90
34726;DHT22;20951;50.818;4.344;2023-05-07T07:30:57;17.00;99.90
34726;DHT22;20951;50.818;4.344;2023-05-07T07:33:33;17.10;99.90
34726;DHT22;20951;50.818;4.344;2023-05-07T07:36:09;17.10;99.90
34726;DHT22;20951;50.818;4.344;2023-05-07T07:38:45;17.10;99.90
34726;DHT22;20951;50.818;4.344;2023-05-07T07:41:11;17.00;99.90
34726;DHT22;20951;50.818;4.344;2023-05-07T07:43:37;16.90;99.90
34726;DHT22;20951;50.818;4.344;2023-05-07T07:46:16;17.00;99.90
34726;DHT22;20951;50.818;4.344;2023-05-07T07:48:52;17.10;99.90
34726;DHT22;20951;50.818;4.344;2023-05-07T07:51:28;17.00;99.90
34726;DHT22;20951;50.818;4.344;2023-05-07T07:53:54;17.10;99.90
34726;DHT22;20951;50.818;4.344;2023-05-07T07:56:31;17.10;99.90
34726;DHT22;20951;50.818;4.344;2023-05-07T07:59:03;17.20;99.90
34726;DHT22;20951;50.818;4.344;2023-05-07T08:01:42;17.10;99.90
34726;DHT22;20951;50.818;4.344;2023-05-07T08:04:15;17.00;99.90
34726;DHT22;20951;50.818;4.344;2023-05-07T08:06:44;17.10;99.90
34726;DHT22;20951;50.818;4.344;2023-05-07T08:09:20;17.20;99.90
34726;DHT22;20951;50.818;4.344;2023-05-07T08:11:56;17.10;99.90
34726;DHT22;20951;50.818;4.344;2023-05-07T08:14:33;17.20;99.90
34726;DHT22;20951;50.818;4.344;2023-05-07T08:17:11;17.20;99.90
34726;DHT22;20951;50.818;4.344;2023-05-07T08:19:48;17.30;99.90
34726;DHT22;20951;50.818;4.344;2023-05-07T08:22:14;17.20;99.90
34726;DHT22;20951;50.818;4.344;2023-05-07T08:24:49;17.20;99.90
34726;DHT22;20951;50.818;4.344;2023-05-07T08:27:27;17.20;99.90
34726;DHT22;20951;50.818;4.344;2023-05-07T08:29:56;17.40;99.90
34726;DHT22;20951;50.818;4.344;2023-05-07T08:32:24;17.50;99.90
34726;DHT22;20951;50.818;4.344;2023-05-07T08:35:07;17.70;99.90
34726;DHT22;20951;50.818;4.344;2023-05-07T08:37:33;17.90;99.90
34726;DHT22;20951;50.818;4.344;2023-05-07T08:40:10;18.00;99.90
34726;DHT22;20951;50.818;4.344;2023-05-07T08:42:48;18.10;99.90
34726;DHT22;20951;50.818;4.344;2023-05-07T08:45:28;18.20;99.90
34726;DHT22;20951;50.818;4.344;2023-05-07T08:48:14;18.20;99.90
34726;DHT22;20951;50.818;4.344;2023-05-07T08:50:43;18.20;99.90
34726;DHT22;20951;50.818;4.344;2023-05-07T08:53:22;18.30;99.90
34726;DHT22;20951;50.818;4.344;2023-05-07T08:56:01;18.10;99.90
34726;DHT22;20951;50.818;4.344;2023-05-07T08:58:28;18.20;99.90
34726;DHT22;20951;50.818;4.344;2023-05-07T09:00:54;18.30;99.90
34726;DHT22;20951;50.818;4.344;2023-05-07T09:03:24;18.20;99.90
34726;DHT22;20951;50.818;4.344;2023-05-07T09:06:00;18.20;99.90
34726;DHT22;20951;50.818;4.344;2023-05-07T09:08:37;18.30;99.90
34726;DHT22;20951;50.818;4.344;2023-05-07T09:11:06;18.30;99.90
34726;DHT22;20951;50.818;4.344;2023-05-07T09:13:40;18.50;99.90
34726;DHT22;20951;50.818;4.344;2023-05-07T09:16:11;18.60;99.90
34726;DHT22;20951;50.818;4.344;2023-05-07T09:18:44;18.60;99.90
34726;DHT22;20951;50.818;4.344;2023-05-07T09:21:17;18.80;99.90
34726;DHT22;20951;50.818;4.344;2023-05-07T09:23:45;19.10;99.90
34726;DHT22;20951;50.818;4.344;2023-05-07T09:26:24;19.20;99.90
34726;DHT22;20951;50.818;4.344;2023-05-07T09:29:01;19.30;99.90
34726;DHT22;20951;50.818;4.344;2023-05-07T09:31:41;19.50;99.90
34726;DHT22;20951;50.818;4.344;2023-05-07T09:34:20;19.60;99.90
34726;DHT22;20951;50.818;4.344;2023-05-07T09:36:46;19.80;99.90
34726;DHT22;20951;50.818;4.344;2023-05-07T09:39:19;19.80;99.90
34726;DHT22;20951;50.818;4.344;2023-05-07T09:41:49;20.00;99.90
34726;DHT22;20951;50.818;4.344;2023-05-07T09:44:22;20.00;99.90
34726;DHT22;20951;50.818;4.344;2023-05-07T09:46:54;19.60;99.90
34726;DHT22;20951;50.818;4.344;2023-05-07T09:49:37;19.70;99.90
34726;DHT22;20951;50.818;4.344;2023-05-07T09:52:14;19.50;99.90
34726;DHT22;20951;50.818;4.344;2023-05-07T09:54:43;19.30;99.90
34726;DHT22;20951;50.818;4.344;2023-05-07T09:57:13;19.30;99.90
34726;DHT22;20951;50.818;4.344;2023-05-07T09:59:50;19.10;99.90
34726;DHT22;20951;50.818;4.344;2023-05-07T10:02:25;18.60;99.90
34726;DHT22;20951;50.818;4.344;2023-05-07T10:04:52;18.40;99.90
34726;DHT22;20951;50.818;4.344;2023-05-07T10:07:30;18.30;99.90
34726;DHT22;20951;50.818;4.344;2023-05-07T10:10:06;18.30;99.90
34726;DHT22;20951;50.818;4.344;2023-05-07T10:12:50;18.30;99.90
34726;DHT22;20951;50.818;4.344;2023-05-07T10:15:26;18.20;99.90
34726;DHT22;20951;50.818;4.344;2023-05-07T10:18:11;18.40;99.90
34726;DHT22;20951;50.818;4.344;2023-05-07T10:21:04;18.50;99.90
34726;DHT22;20951;50.818;4.344;2023-05-07T10:26:43;18.60;99.90
34726;DHT22;20951;50.818;4.344;2023-05-07T10:32:55;18.40;99.90
34726;DHT22;20951;50.818;4.344;2023-05-07T10:35:40;18.20;99.90
34726;DHT22;20951;50.818;4.344;2023-05-07T10:38:17;17.90;99.90
34726;DHT22;20951;50.818;4.344;2023-05-07T10:40:56;17.80;99.90
34726;DHT22;20951;50.818;4.344;2023-05-07T10:43:58;17.70;99.90
34726;DHT22;20951;50.818;4.344;2023-05-07T10:46:27;18.10;99.90
34726;DHT22;20951;50.818;4.344;2023-05-07T10:51:36;18.10;99.90
34726;DHT22;20951;50.818;4.344;2023-05-07T10:56:41;18.00;99.90
34726;DHT22;20951;50.818;4.344;2023-05-07T11:02:03;18.30;99.90
34726;DHT22;20951;50.818;4.344;2023-05-07T11:04:42;18.40;99.90
34726;DHT22;20951;50.818;4.344;2023-05-07T11:07:28;18.50;99.90
34726;DHT22;20951;50.818;4.344;2023-05-07T11:15:11;18.90;99.90
34726;DHT22;20951;50.818;4.344;2023-05-07T11:17:55;19.00;99.90
34726;DHT22;20951;50.818;4.344;2023-05-07T11:20:21;19.10;99.90
34726;DHT22;20951;50.818;4.344;2023-05-07T11:26:31;19.30;99.90
34726;DHT22;20951;50.818;4.344;2023-05-07T11:29:20;19.30;99.90
34726;DHT22;20951;50.818;4.344;2023-05-07T11:32:02;19.30;99.90
34726;DHT22;20951;50.818;4.344;2023-05-07T11:34:32;19.50;99.90
34726;DHT22;20951;50.818;4.344;2023-05-07T11:37:15;19.40;99.90
34726;DHT22;20951;50.818;4.344;2023-05-07T11:40:03;19.00;99.90
34726;DHT22;20951;50.818;4.344;2023-05-07T11:42:40;19.30;99.90
34726;DHT22;20951;50.818;4.344;2023-05-07T11:45:08;19.50;99.90
34726;DHT22;20951;50.818;4.344;2023-05-07T11:47:37;19.70;99.90
34726;DHT22;20951;50.818;4.344;2023-05-07T11:50:10;20.00;99.90
34726;DHT22;20951;50.818;4.344;2023-05-07T11:52:36;20.00;99.90
34726;DHT22;20951;50.818;4.344;2023-05-07T11:55:11;19.70;99.90
34726;DHT22;20951;50.818;4.344;2023-05-07T11:57:47;19.80;99.90
34726;DHT22;20951;50.818;4.344;2023-05-07T12:00:17;20.00;99.90
34726;DHT22;20951;50.818;4.344;2023-05-07T12:02:50;20.30;99.90
34726;DHT22;20951;50.818;4.344;2023-05-07T12:05:19;20.20;99.90
34726;DHT22;20951;50.818;4.344;2023-05-07T12:07:58;20.30;99.90
34726;DHT22;20951;50.818;4.344;2023-05-07T12:10:26;20.40;99.90
34726;DHT22;20951;50.818;4.344;2023-05-07T12:13:02;20.10;99.90
34726;DHT22;20951;50.818;4.344;2023-05-07T12:15:29;20.60;99.90
34726;DHT22;20951;50.818;4.344;2023-05-07T12:18:05;21.00;99.90
34726;DHT22;20951;50.818;4.344;2023-05-07T12:20:34;21.30;99.90
34726;DHT22;20951;50.818;4.344;2023-05-07T12:23:02;21.20;99.90
34726;DHT22;20951;50.818;4.344;2023-05-07T12:25:36;21.10;99.90
34726;DHT22;20951;50.818;4.344;2023-05-07T12:28:19;21.30;99.90
34726;DHT22;20951;50.818;4.344;2023-05-07T12:30:49;21.30;99.90
34726;DHT22;20951;50.818;4.344;2023-05-07T12:33:29;21.30;99.90
34726;DHT22;20951;50.818;4.344;2023-05-07T12:36:06;21.10;99.90
34726;DHT22;20951;50.818;4.344;2023-05-07T12:38:45;21.40;99.90
34726;DHT22;20951;50.818;4.344;2023-05-07T12:41:18;21.00;99.90
34726;DHT22;20951;50.818;4.344;2023-05-07T12:43:44;20.60;99.90
34726;DHT22;20951;50.818;4.344;2023-05-07T12:46:11;20.90;99.90
34726;DHT22;20951;50.818;4.344;2023-05-07T12:48:53;21.00;99.90
34726;DHT22;20951;50.818;4.344;2023-05-07T12:51:22;21.30;99.90
34726;DHT22;20951;50.818;4.344;2023-05-07T12:54:00;21.40;99.90
34726;DHT22;20951;50.818;4.344;2023-05-07T12:56:25;21.30;99.90
34726;DHT22;20951;50.818;4.344;2023-05-07T12:58:59;21.40;99.90
34726;DHT22;20951;50.818;4.344;2023-05-07T13:01:36;21.50;99.90
34726;DHT22;20951;50.818;4.344;2023-05-07T13:04:03;21.20;99.90
34726;DHT22;20951;50.818;4.344;2023-05-07T13:06:37;20.80;99.90
34726;DHT22;20951;50.818;4.344;2023-05-07T13:09:14;20.80;99.90
34726;DHT22;20951;50.818;4.344;2023-05-07T13:11:53;21.00;99.90
34726;DHT22;20951;50.818;4.344;2023-05-07T13:14:31;21.00;99.90
34726;DHT22;20951;50.818;4.344;2023-05-07T13:16:57;21.00;99.90
34726;DHT22;20951;50.818;4.344;2023-05-07T13:19:33;21.00;99.90
34726;DHT22;20951;50.818;4.344;2023-05-07T13:22:08;20.70;99.90
34726;DHT22;20951;50.818;4.344;2023-05-07T13:24:43;20.20;99.90
34726;DHT22;20951;50.818;4.344;2023-05-07T13:27:24;20.20;99.90
34726;DHT22;20951;50.818;4.344;2023-05-07T13:30:01;20.20;99.90
34726;DHT22;20951;50.818;4.344;2023-05-07T13:32:37;20.40;99.90
34726;DHT22;20951;50.818;4.344;2023-05-07T13:35:05;20.50;99.90
34726;DHT22;20951;50.818;4.344;2023-05-07T13:37:44;20.40;99.90
34726;DHT22;20951;50.818;4.344;2023-05-07T13:40:23;20.30;99.90
34726;DHT22;20951;50.818;4.344;2023-05-07T13:42:58;20.40;99.90
34726;DHT22;20951;50.818;4.344;2023-05-07T13:45:36;20.40;99.90
34726;DHT22;20951;50.818;4.344;2023-05-07T13:48:09;20.20;99.90
34726;DHT22;20951;50.818;4.344;2023-05-07T13:50:35;20.10;99.90
34726;DHT22;20951;50.818;4.344;2023-05-07T13:53:11;20.30;99.90
34726;DHT22;20951;50.818;4.344;2023-05-07T13:55:46;20.40;99.90
34726;DHT22;20951;50.818;4.344;2023-05-07T13:58:14;20.20;99.90
34726;DHT22;20951;50.818;4.344;2023-05-07T14:00:45;19.90;99.90
34726;DHT22;20951;50.818;4.344;2023-05-07T14:03:13;19.90;99.90
34726;DHT22;20951;50.818;4.344;2023-05-07T14:05:50;19.90;99.90
34726;DHT22;20951;50.818;4.344;2023-05-07T14:08:18;20.10;99.90
34726;DHT22;20951;50.818;4.344;2023-05-07T14:10:45;20.00;99.90
34726;DHT22;20951;50.818;4.344;2023-05-07T14:13:22;19.80;99.90
34726;DHT22;20951;50.818;4.344;2023-05-07T14:15:54;19.60;99.90
34726;DHT22;20951;50.818;4.344;2023-05-07T14:18:24;19.60;99.90
34726;DHT22;20951;50.818;4.344;2023-05-07T14:21:00;19.80;99.90
34726;DHT22;20951;50.818;4.344;2023-05-07T14:23:36;19.80;99.90
34726;DHT22;20951;50.818;4.344;2023-05-07T14:26:05;19.80;99.90
34726;DHT22;20951;50.818;4.344;2023-05-07T14:28:35;19.90;99.90
34726;DHT22;20951;50.818;4.344;2023-05-07T14:31:13;20.10;99.90
34726;DHT22;20951;50.818;4.344;2023-05-07T14:33:46;20.00;99.90
34726;DHT22;20951;50.818;4.344;2023-05-07T14:36:18;20.10;99.90
34726;DHT22;20951;50.818;4.344;2023-05-07T14:38:54;19.90;99.90
34726;DHT22;20951;50.818;4.344;2023-05-07T14:41:30;19.80;99.90
34726;DHT22;20951;50.818;4.344;2023-05-07T14:44:07;19.90;99.90
34726;DHT22;20951;50.818;4.344;2023-05-07T14:46:33;20.20;99.90
34726;DHT22;20951;50.818;4.344;2023-05-07T14:48:58;20.30;99.90
34726;DHT22;20951;50.818;4.344;2023-05-07T14:51:24;20.30;99.90
34726;DHT22;20951;50.818;4.344;2023-05-07T14:53:56;20.20;99.90
34726;DHT22;20951;50.818;4.344;2023-05-07T14:56:29;20.10;99.90
34726;DHT22;20951;50.818;4.344;2023-05-07T14:58:57;19.70;99.90
34726;DHT22;20951;50.818;4.344;2023-05-07T15:01:36;19.70;99.90
34726;DHT22;20951;50.818;4.344;2023-05-07T15:04:17;19.80;99.90
34726;DHT22;20951;50.818;4.344;2023-05-07T15:07:06;19.70;99.90
34726;DHT22;20951;50.818;4.344;2023-05-07T15:09:33;19.90;99.90
34726;DHT22;20951;50.818;4.344;2023-05-07T15:12:05;20.00;99.90
34726;DHT22;20951;50.818;4.344;2023-05-07T15:14:38;20.20;99.90
34726;DHT22;20951;50.818;4.344;2023-05-07T15:17:07;20.00;99.90
34726;DHT22;20951;50.818;4.344;2023-05-07T15:19:47;19.90;99.90
34726;DHT22;20951;50.818;4.344;2023-05-07T15:22:14;19.60;99.90
34726;DHT22;20951;50.818;4.344;2023-05-07T15:24:40;19.70;99.90
34726;DHT22;20951;50.818;4.344;2023-05-07T15:27:09;19.80;99.90
34726;DHT22;20951;50.818;4.344;2023-05-07T15:29:35;20.00;99.90
34726;DHT22;20951;50.818;4.344;2023-05-07T15:32:11;20.00;99.90
34726;DHT22;20951;50.818;4.344;2023-05-07T15:34:52;19.90;99.90
34726;DHT22;20951;50.818;4.344;2023-05-07T15:37:30;19.80;99.90
34726;DHT22;20951;50.818;4.344;2023-05-07T15:39:59;19.90;99.90
34726;DHT22;20951;50.818;4.344;2023-05-07T15:42:35;20.00;99.90
34726;DHT22;20951;50.818;4.344;2023-05-07T15:45:09;19.80;99.90
34726;DHT22;20951;50.818;4.344;2023-05-07T15:47:36;19.90;99.90
34726;DHT22;20951;50.818;4.344;2023-05-07T15:50:13;20.00;99.90
34726;DHT22;20951;50.818;4.344;2023-05-07T15:52:49;20.00;99.90
34726;DHT22;20951;50.818;4.344;2023-05-07T15:55:25;19.90;99.90
34726;DHT22;20951;50.818;4.344;2023-05-07T15:58:04;19.90;99.90
34726;DHT22;20951;50.818;4.344;2023-05-07T16:00:35;19.80;99.90
34726;DHT22;20951;50.818;4.344;2023-05-07T16:03:22;19.70;99.90
34726;DHT22;20951;50.818;4.344;2023-05-07T16:06:03;19.50;99.90
34726;DHT22;20951;50.818;4.344;2023-05-07T16:08:44;19.30;99.90
34726;DHT22;20951;50.818;4.344;2023-05-07T16:11:19;19.30;99.90
34726;DHT22;20951;50.818;4.344;2023-05-07T16:13:45;19.50;99.90
34726;DHT22;20951;50.818;4.344;2023-05-07T16:16:16;19.40;99.90
34726;DHT22;20951;50.818;4.344;2023-05-07T16:18:54;19.50;99.90
34726;DHT22;20951;50.818;4.344;2023-05-07T16:21:31;19.60;99.90
34726;DHT22;20951;50.818;4.344;2023-05-07T16:24:09;19.70;99.90
34726;DHT22;20951;50.818;4.344;2023-05-07T16:26:35;19.30;99.90
34726;DHT22;20951;50.818;4.344;2023-05-07T16:29:18;19.40;99.90
34726;DHT22;20951;50.818;4.344;2023-05-07T16:31:50;19.40;99.90
34726;DHT22;20951;50.818;4.344;2023-05-07T16:34:17;19.40;99.90
34726;DHT22;20951;50.818;4.344;2023-05-07T16:36:49;19.40;99.90
34726;DHT22;20951;50.818;4.344;2023-05-07T16:39:22;19.20;99.90